sensor_id;sensor_type;location;lat;lon;timestamp;P1;durP1;ratioP1;P2;durP2;ratioP2
8161;SDS011;16778;48.154;15.094;2023-04-24T00:01:40;2.40;;;1.30;;
8161;SDS011;16778;48.154;15.094;2023-04-24T00:04:07;2.23;;;1.20;;
8161;SDS011;16778;48.154;15.094;2023-04-24T00:06:35;1.13;;;0.93;;
8161;SDS011;16778;48.154;15.094;2023-04-24T00:09:07;1.60;;;1.10;;
8161;SDS011;16778;48.154;15.094;2023-04-24T00:11:36;3.03;;;1.50;;
8161;SDS011;16778;48.154;15.094;2023-04-24T00:14:02;2.23;;;1.27;;
8161;SDS011;16778;48.154;15.094;2023-04-24T00:16:28;2.10;;;1.50;;
8161;SDS011;16778;48.154;15.094;2023-04-24T00:18:54;1.60;;;1.30;;
8161;SDS011;16778;48.154;15.094;2023-04-24T00:21:19;1.30;;;1.20;;
8161;SDS011;16778;48.154;15.094;2023-04-24T00:23:45;2.37;;;0.97;;
8161;SDS011;16778;48.154;15.094;2023-04-24T00:26:11;2.93;;;1.07;;
8161;SDS011;16778;48.154;15.094;2023-04-24T00:28:36;1.43;;;1.33;;
8161;SDS011;16778;48.154;15.094;2023-04-24T00:31:02;2.00;;;1.07;;
8161;SDS011;16778;48.154;15.094;2023-04-24T00:33:28;1.63;;;1.13;;
8161;SDS011;16778;48.154;15.094;2023-04-24T00:35:53;1.70;;;1.23;;
8161;SDS011;16778;48.154;15.094;2023-04-24T00:38:19;2.60;;;1.20;;
8161;SDS011;16778;48.154;15.094;2023-04-24T00:40:45;1.70;;;1.30;;
8161;SDS011;16778;48.154;15.094;2023-04-24T00:43:10;1.80;;;1.33;;
8161;SDS011;16778;48.154;15.094;2023-04-24T00:45:37;1.83;;;1.40;;
8161;SDS011;16778;48.154;15.094;2023-04-24T00:48:02;2.40;;;1.93;;
8161;SDS011;16778;48.154;15.094;2023-04-24T00:50:29;2.20;;;1.57;;
8161;SDS011;16778;48.154;15.094;2023-04-24T00:52:55;4.67;;;1.60;;
8161;SDS011;16778;48.154;15.094;2023-04-24T00:55:21;2.40;;;1.57;;
8161;SDS011;16778;48.154;15.094;2023-04-24T00:57:46;1.90;;;1.40;;
8161;SDS011;16778;48.154;15.094;2023-04-24T01:00:14;1.30;;;1.20;;
8161;SDS011;16778;48.154;15.094;2023-04-24T01:02:41;2.07;;;1.57;;
8161;SDS011;16778;48.154;15.094;2023-04-24T01:05:11;1.80;;;1.00;;
8161;SDS011;16778;48.154;15.094;2023-04-24T01:07:38;2.17;;;1.03;;
8161;SDS011;16778;48.154;15.094;2023-04-24T01:10:04;2.80;;;1.73;;
8161;SDS011;16778;48.154;15.094;2023-04-24T01:12:31;2.93;;;1.70;;
8161;SDS011;16778;48.154;15.094;2023-04-24T01:14:57;1.53;;;1.13;;
8161;SDS011;16778;48.154;15.094;2023-04-24T01:17:23;1.30;;;1.20;;
8161;SDS011;16778;48.154;15.094;2023-04-24T01:19:49;1.97;;;1.50;;
8161;SDS011;16778;48.154;15.094;2023-04-24T01:22:14;1.87;;;1.10;;
8161;SDS011;16778;48.154;15.094;2023-04-24T01:24:41;1.33;;;1.07;;
8161;SDS011;16778;48.154;15.094;2023-04-24T01:27:08;1.70;;;1.07;;
8161;SDS011;16778;48.154;15.094;2023-04-24T01:29:34;2.40;;;1.40;;
8161;SDS011;16778;48.154;15.094;2023-04-24T01:32:00;2.80;;;1.40;;
8161;SDS011;16778;48.154;15.094;2023-04-24T01:34:26;1.23;;;0.93;;
8161;SDS011;16778;48.154;15.094;2023-04-24T01:36:51;1.63;;;1.17;;
8161;SDS011;16778;48.154;15.094;2023-04-24T01:39:17;1.30;;;1.20;;
8161;SDS011;16778;48.154;15.094;2023-04-24T01:41:45;1.90;;;1.30;;
8161;SDS011;16778;48.154;15.094;2023-04-24T01:44:11;2.10;;;1.73;;
8161;SDS011;16778;48.154;15.094;2023-04-24T01:46:37;2.77;;;1.27;;
8161;SDS011;16778;48.154;15.094;2023-04-24T01:49:03;2.43;;;1.47;;
8161;SDS011;16778;48.154;15.094;2023-04-24T01:51:29;1.30;;;1.17;;
8161;SDS011;16778;48.154;15.094;2023-04-24T01:53:55;3.67;;;1.57;;
8161;SDS011;16778;48.154;15.094;2023-04-24T01:56:21;2.07;;;1.40;;
8161;SDS011;16778;48.154;15.094;2023-04-24T01:58:47;6.57;;;1.60;;
8161;SDS011;16778;48.154;15.094;2023-04-24T02:01:17;2.67;;;1.37;;
8161;SDS011;16778;48.154;15.094;2023-04-24T02:03:43;2.50;;;1.53;;
8161;SDS011;16778;48.154;15.094;2023-04-24T02:06:09;3.17;;;1.87;;
8161;SDS011;16778;48.154;15.094;2023-04-24T02:08:35;4.63;;;1.80;;
8161;SDS011;16778;48.154;15.094;2023-04-24T02:11:00;5.00;;;1.60;;
8161;SDS011;16778;48.154;15.094;2023-04-24T02:13:27;1.70;;;1.53;;
8161;SDS011;16778;48.154;15.094;2023-04-24T02:15:53;1.27;;;0.97;;
8161;SDS011;16778;48.154;15.094;2023-04-24T02:18:18;2.27;;;1.17;;
8161;SDS011;16778;48.154;15.094;2023-04-24T02:20:44;3.27;;;1.50;;
8161;SDS011;16778;48.154;15.094;2023-04-24T02:23:10;3.07;;;1.80;;
8161;SDS011;16778;48.154;15.094;2023-04-24T02:25:36;1.33;;;1.17;;
8161;SDS011;16778;48.154;15.094;2023-04-24T02:28:02;1.90;;;1.03;;
8161;SDS011;16778;48.154;15.094;2023-04-24T02:30:28;2.03;;;1.37;;
8161;SDS011;16778;48.154;15.094;2023-04-24T02:32:53;2.87;;;1.30;;
8161;SDS011;16778;48.154;15.094;2023-04-24T02:35:20;1.17;;;1.00;;
8161;SDS011;16778;48.154;15.094;2023-04-24T02:37:45;3.53;;;0.73;;
8161;SDS011;16778;48.154;15.094;2023-04-24T02:40:11;1.37;;;0.80;;
8161;SDS011;16778;48.154;15.094;2023-04-24T02:42:37;0.97;;;0.90;;
8161;SDS011;16778;48.154;15.094;2023-04-24T02:45:02;0.80;;;0.53;;
8161;SDS011;16778;48.154;15.094;2023-04-24T02:47:28;1.17;;;0.70;;
8161;SDS011;16778;48.154;15.094;2023-04-24T02:49:54;0.60;;;0.50;;
8161;SDS011;16778;48.154;15.094;2023-04-24T02:52:19;1.03;;;0.50;;
8161;SDS011;16778;48.154;15.094;2023-04-24T02:54:45;0.20;;;0.20;;
8161;SDS011;16778;48.154;15.094;2023-04-24T02:57:11;1.70;;;0.47;;
8161;SDS011;16778;48.154;15.094;2023-04-24T02:59:37;0.57;;;0.43;;
8161;SDS011;16778;48.154;15.094;2023-04-24T03:02:02;0.50;;;0.50;;
8161;SDS011;16778;48.154;15.094;2023-04-24T03:04:28;0.57;;;0.57;;
8161;SDS011;16778;48.154;15.094;2023-04-24T03:06:54;0.73;;;0.60;;
8161;SDS011;16778;48.154;15.094;2023-04-24T03:09:20;0.87;;;0.70;;
8161;SDS011;16778;48.154;15.094;2023-04-24T03:11:46;0.40;;;0.33;;
8161;SDS011;16778;48.154;15.094;2023-04-24T03:14:12;0.53;;;0.50;;
8161;SDS011;16778;48.154;15.094;2023-04-24T03:16:37;0.60;;;0.40;;
8161;SDS011;16778;48.154;15.094;2023-04-24T03:19:03;0.40;;;0.40;;
8161;SDS011;16778;48.154;15.094;2023-04-24T03:21:28;0.57;;;0.57;;
8161;SDS011;16778;48.154;15.094;2023-04-24T03:23:54;0.60;;;0.40;;
8161;SDS011;16778;48.154;15.094;2023-04-24T03:26:20;0.50;;;0.50;;
8161;SDS011;16778;48.154;15.094;2023-04-24T03:28:45;0.40;;;0.40;;
8161;SDS011;16778;48.154;15.094;2023-04-24T03:31:11;0.50;;;0.50;;
8161;SDS011;16778;48.154;15.094;2023-04-24T03:33:37;0.50;;;0.50;;
8161;SDS011;16778;48.154;15.094;2023-04-24T03:36:02;0.23;;;0.23;;
8161;SDS011;16778;48.154;15.094;2023-04-24T03:38:30;0.77;;;0.43;;
8161;SDS011;16778;48.154;15.094;2023-04-24T03:40:55;0.40;;;0.30;;
8161;SDS011;16778;48.154;15.094;2023-04-24T03:43:21;0.30;;;0.30;;
8161;SDS011;16778;48.154;15.094;2023-04-24T03:45:46;0.40;;;0.40;;
8161;SDS011;16778;48.154;15.094;2023-04-24T03:48:12;0.27;;;0.27;;
8161;SDS011;16778;48.154;15.094;2023-04-24T03:50:38;0.20;;;0.20;;
8161;SDS011;16778;48.154;15.094;2023-04-24T03:53:03;0.50;;;0.20;;
8161;SDS011;16778;48.154;15.094;2023-04-24T03:55:29;0.20;;;0.20;;
8161;SDS011;16778;48.154;15.094;2023-04-24T03:57:55;0.30;;;0.30;;
8161;SDS011;16778;48.154;15.094;2023-04-24T04:00:20;0.30;;;0.30;;
8161;SDS011;16778;48.154;15.094;2023-04-24T04:02:46;0.63;;;0.30;;
8161;SDS011;16778;48.154;15.094;2023-04-24T04:05:12;0.50;;;0.47;;
8161;SDS011;16778;48.154;15.094;2023-04-24T04:07:37;0.27;;;0.23;;
8161;SDS011;16778;48.154;15.094;2023-04-24T04:10:03;0.80;;;0.30;;
8161;SDS011;16778;48.154;15.094;2023-04-24T04:12:29;0.47;;;0.30;;
8161;SDS011;16778;48.154;15.094;2023-04-24T04:14:55;0.20;;;0.20;;
8161;SDS011;16778;48.154;15.094;2023-04-24T04:17:20;0.00;;;0.00;;
8161;SDS011;16778;48.154;15.094;2023-04-24T04:19:46;0.30;;;0.30;;
8161;SDS011;16778;48.154;15.094;2023-04-24T04:22:12;0.20;;;0.20;;
8161;SDS011;16778;48.154;15.094;2023-04-24T04:24:37;0.37;;;0.30;;
8161;SDS011;16778;48.154;15.094;2023-04-24T04:27:05;0.80;;;0.40;;
8161;SDS011;16778;48.154;15.094;2023-04-24T04:29:31;0.13;;;0.13;;
8161;SDS011;16778;48.154;15.094;2023-04-24T04:31:57;0.40;;;0.30;;
8161;SDS011;16778;48.154;15.094;2023-04-24T04:34:23;0.60;;;0.53;;
8161;SDS011;16778;48.154;15.094;2023-04-24T04:36:49;0.83;;;0.60;;
8161;SDS011;16778;48.154;15.094;2023-04-24T04:39:15;0.33;;;0.33;;
8161;SDS011;16778;48.154;15.094;2023-04-24T04:41:41;0.40;;;0.30;;
8161;SDS011;16778;48.154;15.094;2023-04-24T04:44:07;0.30;;;0.30;;
8161;SDS011;16778;48.154;15.094;2023-04-24T04:46:34;0.50;;;0.50;;
8161;SDS011;16778;48.154;15.094;2023-04-24T04:49:01;1.27;;;0.47;;
8161;SDS011;16778;48.154;15.094;2023-04-24T04:51:27;0.50;;;0.50;;
8161;SDS011;16778;48.154;15.094;2023-04-24T04:53:53;0.30;;;0.23;;
8161;SDS011;16778;48.154;15.094;2023-04-24T04:56:18;0.60;;;0.43;;
8161;SDS011;16778;48.154;15.094;2023-04-24T04:58:44;0.30;;;0.30;;
8161;SDS011;16778;48.154;15.094;2023-04-24T05:01:10;0.40;;;0.40;;
8161;SDS011;16778;48.154;15.094;2023-04-24T05:03:35;0.77;;;0.40;;
8161;SDS011;16778;48.154;15.094;2023-04-24T05:06:01;0.50;;;0.47;;
8161;SDS011;16778;48.154;15.094;2023-04-24T05:08:27;0.77;;;0.50;;
8161;SDS011;16778;48.154;15.094;2023-04-24T05:10:53;1.80;;;0.57;;
8161;SDS011;16778;48.154;15.094;2023-04-24T05:13:20;0.20;;;0.20;;
8161;SDS011;16778;48.154;15.094;2023-04-24T05:15:46;0.37;;;0.37;;
8161;SDS011;16778;48.154;15.094;2023-04-24T05:18:11;0.43;;;0.40;;
8161;SDS011;16778;48.154;15.094;2023-04-24T05:20:37;0.53;;;0.53;;
8161;SDS011;16778;48.154;15.094;2023-04-24T05:23:03;0.40;;;0.40;;
8161;SDS011;16778;48.154;15.094;2023-04-24T05:25:28;0.50;;;0.50;;
8161;SDS011;16778;48.154;15.094;2023-04-24T05:27:57;0.30;;;0.30;;
8161;SDS011;16778;48.154;15.094;2023-04-24T05:30:22;0.57;;;0.37;;
8161;SDS011;16778;48.154;15.094;2023-04-24T05:32:48;0.20;;;0.20;;
8161;SDS011;16778;48.154;15.094;2023-04-24T05:35:13;0.20;;;0.20;;
8161;SDS011;16778;48.154;15.094;2023-04-24T05:37:39;0.57;;;0.37;;
8161;SDS011;16778;48.154;15.094;2023-04-24T05:40:05;3.13;;;0.50;;
8161;SDS011;16778;48.154;15.094;2023-04-24T05:42:31;0.70;;;0.23;;
8161;SDS011;16778;48.154;15.094;2023-04-24T05:44:57;0.37;;;0.37;;
8161;SDS011;16778;48.154;15.094;2023-04-24T05:47:22;1.13;;;0.43;;
8161;SDS011;16778;48.154;15.094;2023-04-24T05:49:48;0.30;;;0.30;;
8161;SDS011;16778;48.154;15.094;2023-04-24T05:52:14;0.23;;;0.23;;
8161;SDS011;16778;48.154;15.094;2023-04-24T05:54:39;0.17;;;0.17;;
8161;SDS011;16778;48.154;15.094;2023-04-24T05:57:05;1.00;;;0.67;;
8161;SDS011;16778;48.154;15.094;2023-04-24T05:59:36;0.10;;;0.10;;
8161;SDS011;16778;48.154;15.094;2023-04-24T06:02:05;0.73;;;0.40;;
8161;SDS011;16778;48.154;15.094;2023-04-24T06:04:32;0.50;;;0.37;;
8161;SDS011;16778;48.154;15.094;2023-04-24T06:06:58;1.10;;;0.40;;
8161;SDS011;16778;48.154;15.094;2023-04-24T06:09:24;0.57;;;0.40;;
8161;SDS011;16778;48.154;15.094;2023-04-24T06:11:50;0.40;;;0.40;;
8161;SDS011;16778;48.154;15.094;2023-04-24T06:14:18;0.70;;;0.40;;
8161;SDS011;16778;48.154;15.094;2023-04-24T06:16:44;0.23;;;0.20;;
8161;SDS011;16778;48.154;15.094;2023-04-24T06:19:09;0.20;;;0.20;;
8161;SDS011;16778;48.154;15.094;2023-04-24T06:21:35;0.20;;;0.20;;
8161;SDS011;16778;48.154;15.094;2023-04-24T06:24:01;0.07;;;0.07;;
8161;SDS011;16778;48.154;15.094;2023-04-24T06:26:27;0.37;;;0.27;;
8161;SDS011;16778;48.154;15.094;2023-04-24T06:28:53;0.57;;;0.57;;
8161;SDS011;16778;48.154;15.094;2023-04-24T06:31:23;0.60;;;0.27;;
8161;SDS011;16778;48.154;15.094;2023-04-24T06:33:49;1.10;;;0.70;;
8161;SDS011;16778;48.154;15.094;2023-04-24T06:36:14;1.37;;;0.77;;
8161;SDS011;16778;48.154;15.094;2023-04-24T06:38:40;0.50;;;0.33;;
8161;SDS011;16778;48.154;15.094;2023-04-24T06:41:06;0.33;;;0.33;;
8161;SDS011;16778;48.154;15.094;2023-04-24T06:43:32;0.00;;;0.00;;
8161;SDS011;16778;48.154;15.094;2023-04-24T06:45:58;0.10;;;0.10;;
8161;SDS011;16778;48.154;15.094;2023-04-24T06:48:25;0.23;;;0.23;;
8161;SDS011;16778;48.154;15.094;2023-04-24T06:50:51;0.23;;;0.23;;
8161;SDS011;16778;48.154;15.094;2023-04-24T06:53:17;0.20;;;0.20;;
8161;SDS011;16778;48.154;15.094;2023-04-24T06:55:42;1.00;;;0.30;;
8161;SDS011;16778;48.154;15.094;2023-04-24T06:58:10;0.30;;;0.20;;
8161;SDS011;16778;48.154;15.094;2023-04-24T07:00:35;0.40;;;0.33;;
8161;SDS011;16778;48.154;15.094;2023-04-24T07:03:01;0.30;;;0.30;;
8161;SDS011;16778;48.154;15.094;2023-04-24T07:05:27;1.20;;;0.40;;
8161;SDS011;16778;48.154;15.094;2023-04-24T07:07:53;0.20;;;0.20;;
8161;SDS011;16778;48.154;15.094;2023-04-24T07:10:18;0.30;;;0.30;;
8161;SDS011;16778;48.154;15.094;2023-04-24T07:12:45;0.00;;;0.00;;
8161;SDS011;16778;48.154;15.094;2023-04-24T07:15:11;0.20;;;0.20;;
8161;SDS011;16778;48.154;15.094;2023-04-24T07:17:37;0.10;;;0.10;;
8161;SDS011;16778;48.154;15.094;2023-04-24T07:20:08;1.30;;;0.40;;
8161;SDS011;16778;48.154;15.094;2023-04-24T07:22:35;0.27;;;0.27;;
8161;SDS011;16778;48.154;15.094;2023-04-24T07:25:02;0.40;;;0.30;;
8161;SDS011;16778;48.154;15.094;2023-04-24T07:27:28;1.80;;;0.10;;
8161;SDS011;16778;48.154;15.094;2023-04-24T07:29:54;0.20;;;0.17;;
8161;SDS011;16778;48.154;15.094;2023-04-24T07:32:19;0.10;;;0.10;;
8161;SDS011;16778;48.154;15.094;2023-04-24T07:34:45;0.37;;;0.20;;
8161;SDS011;16778;48.154;15.094;2023-04-24T07:37:11;0.27;;;0.27;;
8161;SDS011;16778;48.154;15.094;2023-04-24T07:39:36;0.23;;;0.23;;
8161;SDS011;16778;48.154;15.094;2023-04-24T07:42:02;0.10;;;0.10;;
8161;SDS011;16778;48.154;15.094;2023-04-24T07:44:28;0.30;;;0.23;;
8161;SDS011;16778;48.154;15.094;2023-04-24T07:46:54;0.20;;;0.20;;
8161;SDS011;16778;48.154;15.094;2023-04-24T07:49:20;0.30;;;0.30;;
8161;SDS011;16778;48.154;15.094;2023-04-24T07:51:46;0.20;;;0.20;;
8161;SDS011;16778;48.154;15.094;2023-04-24T07:54:11;0.20;;;0.20;;
8161;SDS011;16778;48.154;15.094;2023-04-24T07:56:37;0.20;;;0.20;;
8161;SDS011;16778;48.154;15.094;2023-04-24T07:59:04;0.10;;;0.10;;
8161;SDS011;16778;48.154;15.094;2023-04-24T08:01:30;0.40;;;0.33;;
8161;SDS011;16778;48.154;15.094;2023-04-24T08:03:56;0.50;;;0.50;;
8161;SDS011;16778;48.154;15.094;2023-04-24T08:06:21;0.50;;;0.50;;
8161;SDS011;16778;48.154;15.094;2023-04-24T08:08:47;0.33;;;0.33;;
8161;SDS011;16778;48.154;15.094;2023-04-24T08:11:13;0.00;;;0.00;;
8161;SDS011;16778;48.154;15.094;2023-04-24T08:13:38;0.90;;;0.50;;
8161;SDS011;16778;48.154;15.094;2023-04-24T08:16:04;3.63;;;0.50;;
8161;SDS011;16778;48.154;15.094;2023-04-24T08:18:30;0.20;;;0.20;;
8161;SDS011;16778;48.154;15.094;2023-04-24T08:20:55;0.20;;;0.20;;
8161;SDS011;16778;48.154;15.094;2023-04-24T08:23:26;0.73;;;0.30;;
8161;SDS011;16778;48.154;15.094;2023-04-24T08:25:52;0.20;;;0.13;;
8161;SDS011;16778;48.154;15.094;2023-04-24T08:28:17;0.10;;;0.10;;
8161;SDS011;16778;48.154;15.094;2023-04-24T08:30:45;0.47;;;0.40;;
8161;SDS011;16778;48.154;15.094;2023-04-24T08:33:12;0.23;;;0.20;;
8161;SDS011;16778;48.154;15.094;2023-04-24T08:35:38;0.20;;;0.20;;
8161;SDS011;16778;48.154;15.094;2023-04-24T08:38:04;0.50;;;0.20;;
8161;SDS011;16778;48.154;15.094;2023-04-24T08:40:30;0.23;;;0.20;;
8161;SDS011;16778;48.154;15.094;2023-04-24T08:42:59;0.20;;;0.20;;
8161;SDS011;16778;48.154;15.094;2023-04-24T08:45:25;0.43;;;0.20;;
8161;SDS011;16778;48.154;15.094;2023-04-24T08:47:51;0.27;;;0.27;;
8161;SDS011;16778;48.154;15.094;2023-04-24T08:50:19;1.07;;;0.57;;
8161;SDS011;16778;48.154;15.094;2023-04-24T08:52:45;0.60;;;0.30;;
8161;SDS011;16778;48.154;15.094;2023-04-24T08:55:13;0.30;;;0.30;;
8161;SDS011;16778;48.154;15.094;2023-04-24T08:57:41;0.27;;;0.27;;
8161;SDS011;16778;48.154;15.094;2023-04-24T09:00:10;0.37;;;0.30;;
8161;SDS011;16778;48.154;15.094;2023-04-24T09:02:36;0.17;;;0.17;;
8161;SDS011;16778;48.154;15.094;2023-04-24T09:05:02;0.17;;;0.17;;
8161;SDS011;16778;48.154;15.094;2023-04-24T09:07:28;1.23;;;0.47;;
8161;SDS011;16778;48.154;15.094;2023-04-24T09:09:55;0.40;;;0.33;;
8161;SDS011;16778;48.154;15.094;2023-04-24T09:12:21;0.20;;;0.17;;
8161;SDS011;16778;48.154;15.094;2023-04-24T09:14:47;0.30;;;0.30;;
8161;SDS011;16778;48.154;15.094;2023-04-24T09:17:13;0.50;;;0.50;;
8161;SDS011;16778;48.154;15.094;2023-04-24T09:19:39;1.03;;;0.40;;
8161;SDS011;16778;48.154;15.094;2023-04-24T09:22:05;0.33;;;0.30;;
8161;SDS011;16778;48.154;15.094;2023-04-24T09:24:35;0.20;;;0.20;;
8161;SDS011;16778;48.154;15.094;2023-04-24T09:27:01;3.60;;;0.57;;
8161;SDS011;16778;48.154;15.094;2023-04-24T09:29:27;0.20;;;0.20;;
8161;SDS011;16778;48.154;15.094;2023-04-24T09:31:53;0.47;;;0.30;;
8161;SDS011;16778;48.154;15.094;2023-04-24T09:34:22;0.30;;;0.30;;
8161;SDS011;16778;48.154;15.094;2023-04-24T09:36:50;0.20;;;0.20;;
8161;SDS011;16778;48.154;15.094;2023-04-24T09:39:16;0.30;;;0.23;;
8161;SDS011;16778;48.154;15.094;2023-04-24T09:41:54;0.10;;;0.10;;
8161;SDS011;16778;48.154;15.094;2023-04-24T09:44:24;0.43;;;0.40;;
8161;SDS011;16778;48.154;15.094;2023-04-24T09:46:53;0.23;;;0.17;;
8161;SDS011;16778;48.154;15.094;2023-04-24T09:49:23;0.10;;;0.10;;
8161;SDS011;16778;48.154;15.094;2023-04-24T09:51:49;2.03;;;0.50;;
8161;SDS011;16778;48.154;15.094;2023-04-24T09:54:17;0.17;;;0.17;;
8161;SDS011;16778;48.154;15.094;2023-04-24T09:56:45;0.27;;;0.27;;
8161;SDS011;16778;48.154;15.094;2023-04-24T09:59:13;1.60;;;0.30;;
8161;SDS011;16778;48.154;15.094;2023-04-24T10:01:39;0.93;;;0.50;;
8161;SDS011;16778;48.154;15.094;2023-04-24T10:04:14;0.30;;;0.30;;
8161;SDS011;16778;48.154;15.094;2023-04-24T10:06:42;0.20;;;0.20;;
8161;SDS011;16778;48.154;15.094;2023-04-24T10:09:11;0.10;;;0.10;;
8161;SDS011;16778;48.154;15.094;2023-04-24T10:11:41;0.77;;;0.67;;
8161;SDS011;16778;48.154;15.094;2023-04-24T10:14:09;2.93;;;0.50;;
8161;SDS011;16778;48.154;15.094;2023-04-24T10:16:36;0.10;;;0.10;;
8161;SDS011;16778;48.154;15.094;2023-04-24T10:19:02;0.10;;;0.10;;
8161;SDS011;16778;48.154;15.094;2023-04-24T10:21:28;0.30;;;0.30;;
8161;SDS011;16778;48.154;15.094;2023-04-24T10:23:54;0.20;;;0.20;;
8161;SDS011;16778;48.154;15.094;2023-04-24T10:26:20;0.00;;;0.00;;
8161;SDS011;16778;48.154;15.094;2023-04-24T10:28:46;0.20;;;0.10;;
8161;SDS011;16778;48.154;15.094;2023-04-24T10:31:13;0.77;;;0.40;;
8161;SDS011;16778;48.154;15.094;2023-04-24T10:33:40;0.20;;;0.20;;
8161;SDS011;16778;48.154;15.094;2023-04-24T10:36:07;0.20;;;0.20;;
8161;SDS011;16778;48.154;15.094;2023-04-24T10:38:35;0.20;;;0.20;;
8161;SDS011;16778;48.154;15.094;2023-04-24T10:41:07;0.20;;;0.20;;
8161;SDS011;16778;48.154;15.094;2023-04-24T10:43:45;0.30;;;0.30;;
8161;SDS011;16778;48.154;15.094;2023-04-24T10:46:16;0.20;;;0.20;;
8161;SDS011;16778;48.154;15.094;2023-04-24T10:48:51;0.40;;;0.27;;
8161;SDS011;16778;48.154;15.094;2023-04-24T10:51:21;0.37;;;0.37;;
8161;SDS011;16778;48.154;15.094;2023-04-24T10:53:49;0.87;;;0.20;;
8161;SDS011;16778;48.154;15.094;2023-04-24T10:56:16;0.40;;;0.40;;
8161;SDS011;16778;48.154;15.094;2023-04-24T10:58:42;0.20;;;0.20;;
8161;SDS011;16778;48.154;15.094;2023-04-24T11:03:57;0.30;;;0.30;;
8161;SDS011;16778;48.154;15.094;2023-04-24T11:06:29;0.40;;;0.40;;
8161;SDS011;16778;48.154;15.094;2023-04-24T11:09:06;0.40;;;0.20;;
8161;SDS011;16778;48.154;15.094;2023-04-24T11:11:33;0.30;;;0.30;;
8161;SDS011;16778;48.154;15.094;2023-04-24T11:21:38;0.20;;;0.20;;
8161;SDS011;16778;48.154;15.094;2023-04-24T11:24:21;0.83;;;0.60;;
8161;SDS011;16778;48.154;15.094;2023-04-24T11:32:17;0.20;;;0.20;;
8161;SDS011;16778;48.154;15.094;2023-04-24T11:34:48;0.20;;;0.20;;
8161;SDS011;16778;48.154;15.094;2023-04-24T11:37:15;0.10;;;0.10;;
8161;SDS011;16778;48.154;15.094;2023-04-24T11:39:41;0.10;;;0.10;;
8161;SDS011;16778;48.154;15.094;2023-04-24T11:42:07;0.20;;;0.20;;
8161;SDS011;16778;48.154;15.094;2023-04-24T11:44:39;0.73;;;0.40;;
8161;SDS011;16778;48.154;15.094;2023-04-24T11:47:05;0.30;;;0.30;;
8161;SDS011;16778;48.154;15.094;2023-04-24T11:49:32;0.20;;;0.20;;
8161;SDS011;16778;48.154;15.094;2023-04-24T11:51:57;0.20;;;0.20;;
8161;SDS011;16778;48.154;15.094;2023-04-24T11:54:25;0.23;;;0.23;;
8161;SDS011;16778;48.154;15.094;2023-04-24T11:56:51;0.33;;;0.20;;
8161;SDS011;16778;48.154;15.094;2023-04-24T11:59:17;0.10;;;0.10;;
8161;SDS011;16778;48.154;15.094;2023-04-24T12:01:43;1.07;;;0.60;;
8161;SDS011;16778;48.154;15.094;2023-04-24T12:04:12;0.20;;;0.20;;
8161;SDS011;16778;48.154;15.094;2023-04-24T12:06:38;0.40;;;0.40;;
8161;SDS011;16778;48.154;15.094;2023-04-24T12:09:04;0.20;;;0.20;;
8161;SDS011;16778;48.154;15.094;2023-04-24T12:11:29;0.60;;;0.60;;
8161;SDS011;16778;48.154;15.094;2023-04-24T12:13:55;0.20;;;0.20;;
8161;SDS011;16778;48.154;15.094;2023-04-24T12:16:21;0.20;;;0.20;;
8161;SDS011;16778;48.154;15.094;2023-04-24T12:18:47;0.30;;;0.30;;
8161;SDS011;16778;48.154;15.094;2023-04-24T12:21:20;0.20;;;0.20;;
8161;SDS011;16778;48.154;15.094;2023-04-24T12:23:53;0.27;;;0.27;;
8161;SDS011;16778;48.154;15.094;2023-04-24T12:26:20;0.40;;;0.40;;
8161;SDS011;16778;48.154;15.094;2023-04-24T12:28:48;0.10;;;0.10;;
8161;SDS011;16778;48.154;15.094;2023-04-24T12:31:15;0.17;;;0.17;;
8161;SDS011;16778;48.154;15.094;2023-04-24T12:33:41;0.13;;;0.13;;
8161;SDS011;16778;48.154;15.094;2023-04-24T12:36:09;0.13;;;0.13;;
8161;SDS011;16778;48.154;15.094;2023-04-24T12:38:37;0.10;;;0.10;;
8161;SDS011;16778;48.154;15.094;2023-04-24T12:41:09;0.23;;;0.23;;
8161;SDS011;16778;48.154;15.094;2023-04-24T12:43:36;0.20;;;0.20;;
8161;SDS011;16778;48.154;15.094;2023-04-24T12:46:02;0.20;;;0.20;;
8161;SDS011;16778;48.154;15.094;2023-04-24T12:48:28;0.27;;;0.27;;
8161;SDS011;16778;48.154;15.094;2023-04-24T12:50:56;0.27;;;0.27;;
8161;SDS011;16778;48.154;15.094;2023-04-24T12:53:25;0.07;;;0.07;;
8161;SDS011;16778;48.154;15.094;2023-04-24T12:55:51;0.10;;;0.10;;
8161;SDS011;16778;48.154;15.094;2023-04-24T12:58:21;0.97;;;0.50;;
8161;SDS011;16778;48.154;15.094;2023-04-24T13:00:47;0.20;;;0.20;;
8161;SDS011;16778;48.154;15.094;2023-04-24T13:03:13;0.20;;;0.20;;
8161;SDS011;16778;48.154;15.094;2023-04-24T13:05:39;0.20;;;0.20;;
8161;SDS011;16778;48.154;15.094;2023-04-24T13:08:05;0.07;;;0.07;;
8161;SDS011;16778;48.154;15.094;2023-04-24T13:10:30;2.80;;;0.23;;
8161;SDS011;16778;48.154;15.094;2023-04-24T13:12:56;0.10;;;0.10;;
8161;SDS011;16778;48.154;15.094;2023-04-24T13:15:22;0.17;;;0.17;;
8161;SDS011;16778;48.154;15.094;2023-04-24T13:17:48;0.17;;;0.17;;
8161;SDS011;16778;48.154;15.094;2023-04-24T13:20:14;0.87;;;0.30;;
8161;SDS011;16778;48.154;15.094;2023-04-24T13:22:40;0.00;;;0.00;;
8161;SDS011;16778;48.154;15.094;2023-04-24T13:25:06;0.10;;;0.10;;
8161;SDS011;16778;48.154;15.094;2023-04-24T13:27:32;0.20;;;0.20;;
8161;SDS011;16778;48.154;15.094;2023-04-24T13:29:58;0.20;;;0.20;;
8161;SDS011;16778;48.154;15.094;2023-04-24T13:32:23;0.10;;;0.10;;
8161;SDS011;16778;48.154;15.094;2023-04-24T13:34:50;0.10;;;0.10;;
8161;SDS011;16778;48.154;15.094;2023-04-24T13:37:16;0.10;;;0.10;;
8161;SDS011;16778;48.154;15.094;2023-04-24T13:39:41;0.00;;;0.00;;
8161;SDS011;16778;48.154;15.094;2023-04-24T13:42:07;0.00;;;0.00;;
8161;SDS011;16778;48.154;15.094;2023-04-24T13:44:33;0.10;;;0.10;;
8161;SDS011;16778;48.154;15.094;2023-04-24T13:46:59;0.00;;;0.00;;
8161;SDS011;16778;48.154;15.094;2023-04-24T13:49:25;0.30;;;0.30;;
8161;SDS011;16778;48.154;15.094;2023-04-24T13:51:51;2.60;;;0.37;;
8161;SDS011;16778;48.154;15.094;2023-04-24T13:54:18;1.07;;;0.20;;
8161;SDS011;16778;48.154;15.094;2023-04-24T13:56:44;0.00;;;0.00;;
8161;SDS011;16778;48.154;15.094;2023-04-24T13:59:11;0.00;;;0.00;;
8161;SDS011;16778;48.154;15.094;2023-04-24T14:01:40;0.00;;;0.00;;
8161;SDS011;16778;48.154;15.094;2023-04-24T14:04:05;0.70;;;0.70;;
8161;SDS011;16778;48.154;15.094;2023-04-24T14:06:31;0.30;;;0.30;;
8161;SDS011;16778;48.154;15.094;2023-04-24T14:08:57;0.33;;;0.33;;
8161;SDS011;16778;48.154;15.094;2023-04-24T14:11:23;0.13;;;0.13;;
8161;SDS011;16778;48.154;15.094;2023-04-24T14:13:48;0.67;;;0.20;;
8161;SDS011;16778;48.154;15.094;2023-04-24T14:16:14;0.10;;;0.10;;
8161;SDS011;16778;48.154;15.094;2023-04-24T14:18:40;0.30;;;0.30;;
8161;SDS011;16778;48.154;15.094;2023-04-24T14:21:06;0.10;;;0.10;;
8161;SDS011;16778;48.154;15.094;2023-04-24T14:23:31;0.60;;;0.40;;
8161;SDS011;16778;48.154;15.094;2023-04-24T14:25:57;0.10;;;0.10;;
8161;SDS011;16778;48.154;15.094;2023-04-24T14:28:23;0.30;;;0.30;;
8161;SDS011;16778;48.154;15.094;2023-04-24T14:30:49;0.83;;;0.33;;
8161;SDS011;16778;48.154;15.094;2023-04-24T14:33:15;0.30;;;0.30;;
8161;SDS011;16778;48.154;15.094;2023-04-24T14:35:41;0.20;;;0.20;;
8161;SDS011;16778;48.154;15.094;2023-04-24T14:38:07;0.53;;;0.33;;
8161;SDS011;16778;48.154;15.094;2023-04-24T14:40:33;1.17;;;0.50;;
8161;SDS011;16778;48.154;15.094;2023-04-24T14:42:59;0.43;;;0.40;;
8161;SDS011;16778;48.154;15.094;2023-04-24T14:45:25;0.40;;;0.40;;
8161;SDS011;16778;48.154;15.094;2023-04-24T14:47:52;0.60;;;0.40;;
8161;SDS011;16778;48.154;15.094;2023-04-24T14:50:18;0.50;;;0.30;;
8161;SDS011;16778;48.154;15.094;2023-04-24T14:52:44;0.83;;;0.40;;
8161;SDS011;16778;48.154;15.094;2023-04-24T14:55:09;1.53;;;0.57;;
8161;SDS011;16778;48.154;15.094;2023-04-24T14:57:36;0.10;;;0.10;;
8161;SDS011;16778;48.154;15.094;2023-04-24T15:00:03;0.63;;;0.50;;